Paradise, Canada
Current Conditions -  °F | °C
As of 3:00 PM on Wednesday 26 Nov 2014 (Local Time) from CYQX Reporting Station
Broken Clouds Broken Clouds  
Wind Chill: 32°   Ceiling: 21000
Heat Index: 43°   Visibility: 20mi
Dew Point: 25°   Wind: 32mph
Humidity: 49%   Direction: 280°W
Pressure: 29.91"   Gusts: 43mph
Location:  49.37°N, 55.33°W
Report Text: CYQX 261800Z 28028G37KT 20SM FEW045 SCT160 BKN210 BKN260 06/M04 A2991 RMK SC2AC1CC2CI2 SLP132
Loading
Personal Weather Stations






























Interactive Weather Map New forecast layout! Learn more

10-Day Weather Forecast

Advertisements
Track Severe Weather on mobile